Time;durP1;ratioP1;P1;durP2;ratioP2;P2;SDS_P1;SDS_P2;PMS_P1;PMS_P2;Temp;Humidity;BMP_temperature;BMP_pressure;BME280_temperature;BME280_humidity;BME280_pressure;Samples;Min_cycle;Max_cycle;Signal;HPM_P1;HPM_P2
2021/12/14 06:26:19;;;;;;;12.20;4.47;;;;;;;2.90;88.65;99196.75;5095152;23;20075;-47
2021/12/14 06:28:44;;;;;;;10.40;4.30;;;;;;;3.11;87.27;99192.81;4898669;29;20060;-47
2021/12/14 06:31:10;;;;;;;10.10;4.18;;;;;;;3.04;87.68;99186.91;4864293;29;20488;-46
2021/12/14 06:33:35;;;;;;;9.25;3.70;;;;;;;2.83;87.95;99177.03;4896975;29;20032;-46
2021/12/14 06:36:02;;;;;;;9.77;4.15;;;;;;;2.82;88.68;99181.38;4895746;29;20076;-47
2021/12/14 06:38:34;;;;;;;10.63;3.40;;;;;;;2.93;88.29;99175.09;4897558;29;20396;-47
2021/12/14 06:41:12;;;;;;;;;;;;;;;2.91;88.52;99175.09;4899122;29;20031;-46
2021/12/14 06:43:54;;;;;;;8.77;3.40;;;;;;;2.91;88.77;99162.16;4883654;29;20002;-50
2021/12/14 06:46:27;;;;;;;9.95;3.88;;;;;;;3.19;87.38;99167.56;4878794;29;20032;-49
2021/12/14 06:48:55;;;;;;;10.02;3.67;;;;;;;3.21;86.77;99151.97;4877784;29;20033;-48
2021/12/14 06:51:24;;;;;;;10.60;4.20;;;;;;;2.96;87.83;99149.09;4879054;29;20032;-47
2021/12/14 06:53:55;;;;;;;9.52;4.22;;;;;;;2.96;87.42;99160.31;4874857;29;20085;-49
2021/12/14 06:56:24;;;;;;;9.48;3.40;;;;;;;2.86;87.46;99156.25;4878343;29;20037;-50
2021/12/14 06:59:05;;;;;;;9.93;3.83;;;;;;;3.15;87.12;99157.31;4878883;29;20061;-49
2021/12/14 07:01:33;;;;;;;8.75;3.40;;;;;;;3.19;86.99;99151.16;4877268;29;20033;-52
2021/12/14 07:04:00;;;;;;;8.75;3.22;;;;;;;3.48;86.39;99153.91;4878042;29;20039;-49
2021/12/14 07:06:49;;;;;;;9.13;3.45;;;;;;;3.76;85.68;99153.22;4877712;29;20040;-49
2021/12/14 07:09:24;;;;;;;9.57;3.67;;;;;;;3.78;84.86;99164.38;4877734;29;20100;-48
2021/12/14 07:11:59;;;;;;;10.38;3.95;;;;;;;3.86;83.69;99169.41;4889767;29;20032;-50
2021/12/14 07:14:28;;;;;;;10.13;4.05;;;;;;;3.57;84.77;99166.63;4896499;29;20036;-48
2021/12/14 07:16:57;;;;;;;12.13;4.43;;;;;;;3.52;85.31;99160.72;4883200;29;20029;-48
2021/12/14 07:19:46;;;;;;;10.15;4.15;;;;;;;3.57;85.27;99174.41;4878005;29;20029;-51
2021/12/14 07:22:43;;;;;;;11.93;4.20;;;;;;;3.32;86.09;99176.75;4878197;29;20035;-50
2021/12/14 07:25:31;;;;;;;9.88;3.83;;;;;;;3.38;86.07;99178.34;4894052;29;20056;-52
2021/12/14 07:27:57;;;;;;;9.63;3.55;;;;;;;3.41;84.85;99188.66;4880616;29;20520;-48
2021/12/14 07:30:25;;;;;;;9.20;3.35;;;;;;;3.26;85.75;99204.56;4878997;29;20033;-50
2021/12/14 07:32:56;;;;;;;10.57;3.80;;;;;;;3.40;85.63;99199.06;4878796;29;20508;-48
2021/12/14 07:35:49;;;;;;;8.35;3.17;;;;;;;3.37;85.04;99197.38;4877841;29;20527;-51
2021/12/14 07:38:14;;;;;;;9.85;4.03;;;;;;;3.11;86.23;99215.28;4877383;29;20033;-50
2021/12/14 07:40:41;;;;;;;10.43;4.03;;;;;;;3.20;86.58;99183.97;4877990;29;20039;-48
2021/12/14 07:43:12;;;;;;;9.82;3.72;;;;;;;3.22;86.56;99192.56;4877777;29;20032;-47
2021/12/14 07:45:37;;;;;;;10.80;3.70;;;;;;;3.11;87.05;99190.22;4877557;29;20041;-47
2021/12/14 07:48:03;;;;;;;9.50;3.65;;;;;;;3.08;86.84;99188.53;4876531;29;20041;-50
2021/12/14 07:50:47;;;;;;;9.18;3.50;;;;;;;3.23;87.34;99194.25;4877839;29;20025;-50
2021/12/14 07:53:13;;;;;;;10.65;3.92;;;;;;;3.18;86.53;99188.34;4877913;29;20096;-48
2021/12/14 07:55:41;;;;;;;10.95;4.00;;;;;;;3.28;86.92;99187.25;4877392;29;20103;-49
2021/12/14 07:58:06;;;;;;;10.32;3.60;;;;;;;3.14;87.33;99190.16;4859144;29;20030;-47
2021/12/14 08:00:35;;;;;;;10.75;4.00;;;;;;;3.34;86.64;99187.09;4859445;29;20034;-52
2021/12/14 08:03:01;;;;;;;11.82;4.30;;;;;;;3.29;86.94;99192.38;4859073;29;20630;-49
2021/12/14 08:05:38;;;;;;;10.80;4.03;;;;;;;3.22;86.99;99197.75;4857662;29;20059;-52
2021/12/14 08:08:19;;;;;;;11.13;4.35;;;;;;;3.21;87.33;99194.31;4873649;29;20509;-54
2021/12/14 08:10:57;;;;;;;11.77;3.80;;;;;;;3.25;87.00;99203.72;4877794;29;20033;-52
2021/12/14 08:13:23;;;;;;;9.57;4.03;;;;;;;3.33;87.09;99196.59;4877989;29;20120;-52
2021/12/14 08:15:54;;;;;;;9.77;4.07;;;;;;;3.44;87.11;99192.91;4879730;29;20028;-53
2021/12/14 08:18:23;;;;;;;9.35;3.47;;;;;;;3.52;86.71;99193.59;4880726;29;20118;-54
2021/12/14 08:20:53;;;;;;;10.88;4.38;;;;;;;3.60;86.70;99193.41;4881128;29;20041;-54
2021/12/14 08:23:23;;;;;;;10.25;4.32;;;;;;;3.68;86.00;99194.94;4880662;29;20521;-52
2021/12/14 08:25:48;;;;;;;11.70;4.05;;;;;;;3.49;86.53;99207.47;4880714;29;20045;-52
2021/12/14 08:28:14;;;;;;;9.55;4.25;;;;;;;3.65;86.73;99192.41;4880484;29;20040;-51
2021/12/14 08:30:40;;;;;;;9.38;3.95;;;;;;;3.88;85.77;99194.41;4879662;29;20029;-52
2021/12/14 08:33:20;;;;;;;10.43;3.90;;;;;;;3.68;86.11;99196.63;4880735;29;20017;-50
2021/12/14 08:35:47;;;;;;;10.35;4.00;;;;;;;3.86;85.70;99209.19;4880220;29;20445;-51
2021/12/14 08:38:14;;;;;;;8.27;3.42;;;;;;;4.14;84.26;99229.22;4869099;29;20033;-48
2021/12/14 08:40:40;;;;;;;10.00;3.72;;;;;;;3.92;85.13;99227.19;4873881;29;20222;-49
2021/12/14 08:43:12;;;;;;;9.80;4.00;;;;;;;3.84;85.16;99216.13;4880481;29;20025;-47
2021/12/14 08:45:39;;;;;;;10.80;4.13;;;;;;;3.96;84.83;99208.03;4880349;29;20420;-47
2021/12/14 08:48:06;;;;;;;8.95;4.13;;;;;;;3.55;85.85;99212.53;4880605;29;20028;-49
2021/12/14 08:50:54;;;;;;;10.43;4.38;;;;;;;3.83;85.39;99217.03;4880522;29;20036;-52
2021/12/14 08:53:21;;;;;;;10.75;4.05;;;;;;;3.64;85.78;99220.97;4879931;29;20025;-52
2021/12/14 08:55:48;;;;;;;12.88;4.82;;;;;;;3.45;87.47;99205.00;4878975;29;20113;-51
2021/12/14 08:58:14;;;;;;;13.77;5.00;;;;;;;3.50;87.87;99203.97;4880474;29;20025;-51
2021/12/14 09:00:43;;;;;;;10.43;4.47;;;;;;;3.63;86.38;99201.09;4880324;29;20481;-48
2021/12/14 09:03:10;;;;;;;10.60;4.00;;;;;;;3.77;85.82;99194.66;4880734;29;20081;-52
2021/12/14 09:05:41;;;;;;;11.50;4.38;;;;;;;3.71;86.80;99197.41;4878293;29;20037;-49
2021/12/14 09:08:06;;;;;;;9.80;4.05;;;;;;;3.96;86.03;99205.44;4880451;29;20025;-47
2021/12/14 09:10:33;;;;;;;13.38;4.63;;;;;;;3.83;86.12;99211.84;4880876;29;20031;-51
2021/12/14 09:13:01;;;;;;;10.85;4.25;;;;;;;3.72;86.44;99213.88;4880723;29;20108;-52
2021/12/14 09:15:51;;;;;;;10.43;4.18;;;;;;;3.77;86.31;99224.97;4880062;29;20025;-51
2021/12/14 09:18:17;;;;;;;12.23;4.30;;;;;;;3.63;86.96;99211.47;4879536;29;20040;-51
2021/12/14 09:20:56;;;;;;;11.45;4.50;;;;;;;3.68;86.84;99213.09;4879911;29;20393;-50
2021/12/14 09:23:28;;;;;;;12.77;4.85;;;;;;;3.65;87.03;99218.34;4879650;29;20060;-50
2021/12/14 09:25:53;;;;;;;13.63;5.38;;;;;;;3.60;87.61;99219.34;4878433;29;20040;-51
2021/12/14 09:28:19;;;;;;;11.93;4.93;;;;;;;3.77;86.97;99224.97;4879335;29;20033;-52
2021/12/14 09:30:49;;;;;;;10.00;4.28;;;;;;;3.81;86.79;99216.22;4879885;29;20045;-52
2021/12/14 09:33:14;;;;;;;12.85;4.68;;;;;;;3.72;87.17;99216.47;4879667;29;20025;-49
2021/12/14 09:35:40;;;;;;;11.07;4.38;;;;;;;3.67;87.39;99193.19;4879564;29;20039;-49
2021/12/14 09:38:08;;;;;;;11.38;4.43;;;;;;;4.11;85.95;99190.34;4879010;29;20029;-49
2021/12/14 09:40:37;;;;;;;13.43;4.80;;;;;;;3.78;87.10;99188.59;4878066;29;20438;-52
2021/12/14 09:43:02;;;;;;;11.95;4.50;;;;;;;3.89;86.69;99180.53;4879645;29;20060;-50
2021/12/14 09:45:34;;;;;;;11.60;4.10;;;;;;;4.22;85.65;99172.75;4879489;29;20033;-51
2021/12/14 09:48:00;;;;;;;11.40;4.43;;;;;;;4.20;86.04;99182.34;4879554;29;20036;-49
2021/12/14 09:50:28;;;;;;;10.40;4.25;;;;;;;4.11;86.37;99177.38;4879349;29;20144;-49
2021/12/14 09:52:54;;;;;;;13.00;4.78;;;;;;;4.13;85.92;99180.75;4879223;29;20032;-51
2021/12/14 09:55:23;;;;;;;11.80;4.45;;;;;;;4.12;87.05;99171.28;4878994;29;20069;-50
2021/12/14 09:57:55;;;;;;;11.55;4.95;;;;;;;4.56;85.45;99184.78;4879754;29;20157;-48
2021/12/14 10:00:40;;;;;;;11.70;4.10;;;;;;;4.54;85.19;99179.63;4879720;29;20522;-48
2021/12/14 10:03:05;;;;;;;11.18;4.22;;;;;;;4.23;85.71;99184.81;4879720;29;20029;-48
2021/12/14 10:05:53;;;;;;;12.13;4.32;;;;;;;4.03;87.18;99182.78;4879253;29;20044;-49
2021/12/14 10:08:21;;;;;;;12.52;4.63;;;;;;;4.35;86.06;99179.31;4879462;29;20036;-48
2021/12/14 10:11:01;;;;;;;9.15;3.70;;;;;;;4.36;85.53;99186.19;4878968;29;20029;-48
2021/12/14 10:13:26;;;;;;;9.93;3.78;;;;;;;4.57;84.65;99195.13;4878958;29;20152;-49
2021/12/14 10:15:53;;;;;;;11.45;4.15;;;;;;;4.71;85.01;99184.31;4877830;29;20481;-50
2021/12/14 10:18:36;;;;;;;10.70;3.78;;;;;;;4.58;84.58;99185.59;4878903;29;20460;-51
2021/12/14 10:21:11;;;;;;;9.25;3.50;;;;;;;4.48;85.20;99185.84;4878531;29;20052;-50
2021/12/14 10:23:37;;;;;;;10.10;3.90;;;;;;;4.74;84.72;99186.84;4877179;29;20036;-51
2021/12/14 10:26:03;;;;;;;9.40;3.90;;;;;;;4.94;84.18;99174.09;4870885;29;20505;-52
2021/12/14 10:28:29;;;;;;;10.65;3.95;;;;;;;4.78;83.69;99178.06;4877953;29;20056;-53
2021/12/14 10:31:01;;;;;;;11.52;3.90;;;;;;;4.97;83.87;99179.22;4877602;29;20060;-48
2021/12/14 10:33:28;;;;;;;10.55;3.63;;;;;;;4.96;83.87;99184.47;4879276;29;20025;-53
2021/12/14 10:35:57;;;;;;;10.73;4.35;;;;;;;4.81;84.57;99187.53;4878175;29;20032;-52
2021/12/14 10:38:30;;;;;;;12.52;4.43;;;;;;;4.91;83.98;99182.00;4878999;29;20512;-50
2021/12/14 10:43:48;;;;;;;11.82;4.10;;;;;;;4.82;83.67;99191.81;4878956;29;20080;-53
2021/12/14 10:46:19;;;;;;;10.48;3.83;;;;;;;4.94;83.55;99184.50;4879320;29;20029;-54
2021/12/14 10:48:46;;;;;;;9.90;3.70;;;;;;;5.38;81.99;99187.47;4879182;29;20108;-50
2021/12/14 10:51:14;;;;;;;9.63;3.70;;;;;;;5.44;81.70;99189.91;4878672;29;20033;-54
2021/12/14 10:53:42;;;;;;;10.93;3.42;;;;;;;5.50;82.17;99191.44;4880266;29;20029;-49
2021/12/14 10:56:13;;;;;;;10.07;3.92;;;;;;;5.12;82.85;99197.84;4881007;29;20040;-48
2021/12/14 10:58:38;;;;;;;11.25;3.40;;;;;;;5.41;81.38;99208.22;4880562;29;20041;-49
2021/12/14 11:01:10;;;;;;;9.60;3.88;;;;;;;5.48;81.37;99206.25;4878963;29;20033;-47
2021/12/14 11:03:41;;;;;;;9.95;3.83;;;;;;;5.11;82.92;99217.81;4878436;29;20029;-52
2021/12/14 11:06:10;;;;;;;10.48;4.50;;;;;;;4.98;83.73;99216.47;4879796;29;20398;-54
2021/12/14 11:11:20;;;;;;;9.45;3.70;;;;;;;4.88;83.72;99217.63;4878658;29;20033;-50
2021/12/14 11:13:47;;;;;;;10.65;4.30;;;;;;;5.21;83.37;99215.78;4878694;29;20059;-54
2021/12/14 11:16:20;;;;;;;12.70;4.95;;;;;;;5.01;83.95;99205.97;4878045;29;20036;-50
2021/12/14 11:18:46;;;;;;;11.75;4.05;;;;;;;4.96;84.42;99198.31;4878284;29;20021;-47
2021/12/14 11:21:14;;;;;;;12.02;4.40;;;;;;;4.69;85.29;99192.19;4878760;29;20021;-50
2021/12/14 11:23:42;;;;;;;12.32;4.80;;;;;;;4.72;85.35;99188.66;4877983;29;20536;-51
2021/12/14 11:26:14;;;;;;;10.43;3.97;;;;;;;4.92;85.00;99181.13;4879165;29;20060;-49
2021/12/14 11:28:45;;;;;;;12.40;5.00;;;;;;;4.81;85.31;99177.13;4879012;29;20124;-51
2021/12/14 11:31:11;;;;;;;11.45;4.38;;;;;;;4.81;84.89;99166.72;4881329;29;20400;-51
2021/12/14 11:33:43;;;;;;;11.63;4.40;;;;;;;4.71;85.40;99163.53;4878686;29;20478;-52
2021/12/14 11:36:32;;;;;;;10.93;4.43;;;;;;;4.60;85.83;99165.59;4863066;29;20033;-52
2021/12/14 11:39:03;;;;;;;11.88;4.38;;;;;;;4.77;86.20;99160.75;4876167;29;20458;-48
2021/12/14 11:41:47;;;;;;;11.43;4.22;;;;;;;4.84;85.47;99157.09;4879496;29;20033;-50
2021/12/14 11:44:23;;;;;;;10.13;4.35;;;;;;;4.94;84.67;99152.47;4866762;29;20073;-51
2021/12/14 11:50:16;;;;;;;15.23;4.90;;;;;;;4.88;85.16;99147.44;4862585;29;20478;-53
2021/12/14 11:52:50;;;;;;;11.75;4.75;;;;;;;4.73;85.82;99141.81;4871025;29;20045;-47
2021/12/14 11:55:15;;;;;;;11.82;4.68;;;;;;;4.86;85.11;99150.09;4882118;29;20061;-48
2021/12/14 11:57:41;;;;;;;10.38;4.45;;;;;;;4.91;85.03;99158.59;4883663;29;20219;-53
2021/12/14 12:00:12;;;;;;;10.32;4.35;;;;;;;4.79;85.79;99159.00;4883553;29;20029;-48
2021/12/14 12:02:37;;;;;;;11.35;3.85;;;;;;;4.75;85.43;99159.97;4879147;29;20026;-48
2021/12/14 12:05:17;;;;;;;13.10;5.22;;;;;;;4.60;86.17;99155.22;4863484;29;20044;-51
2021/12/14 12:10:44;;;;;;;11.95;4.68;;;;;;;4.88;85.96;99182.09;4862162;29;20060;-49
2021/12/14 12:13:09;;;;;;;12.15;4.95;;;;;;;4.81;86.44;99175.38;4882038;29;20036;-49
2021/12/14 12:15:40;;;;;;;11.75;4.95;;;;;;;4.95;85.46;99168.00;4880844;29;20408;-47
2021/12/14 12:18:05;;;;;;;13.02;5.70;;;;;;;4.80;85.80;99165.88;4881183;29;20052;-48
2021/12/14 12:20:52;;;;;;;13.32;4.75;;;;;;;5.02;84.96;99155.66;4881104;29;20039;-49
2021/12/14 12:23:21;;;;;;;12.68;4.22;;;;;;;4.90;85.44;99151.72;4880389;29;20580;-49
2021/12/14 12:25:51;;;;;;;16.90;5.82;;;;;;;4.65;86.56;99155.94;4882372;29;20037;-50
2021/12/14 12:28:17;;;;;;;13.43;5.20;;;;;;;4.71;86.92;99154.03;4882455;29;20036;-48
2021/12/14 12:30:47;;;;;;;11.95;4.78;;;;;;;4.65;87.12;99153.34;4881105;29;20036;-48
2021/12/14 12:33:18;;;;;;;11.32;4.78;;;;;;;4.93;86.49;99151.63;4880509;29;20032;-47
2021/12/14 12:36:11;;;;;;;10.77;4.60;;;;;;;4.82;86.20;99145.91;4881301;29;20572;-51
2021/12/14 12:38:47;;;;;;;11.73;5.20;;;;;;;4.78;86.84;99141.66;4880907;29;20056;-49
2021/12/14 12:41:28;;;;;;;12.82;5.18;;;;;;;4.79;86.67;99148.59;4882092;29;20029;-50
2021/12/14 12:44:25;;;;;;;14.55;5.38;;;;;;;4.63;87.36;99147.34;4881354;29;20056;-49
2021/12/14 12:46:56;;;;;;;16.23;6.13;;;;;;;4.69;87.83;99152.34;4877881;29;20505;-49
2021/12/14 12:49:50;;;;;;;14.82;6.05;;;;;;;4.73;87.03;99144.41;4880779;29;20033;-49
2021/12/14 12:52:26;;;;;;;14.80;5.60;;;;;;;4.71;87.38;99141.03;4879912;29;20037;-48
2021/12/14 12:55:11;;;;;;;16.17;5.25;;;;;;;4.63;87.73;99142.97;4880729;29;20060;-52
2021/12/14 12:57:55;;;;;;;12.88;5.05;;;;;;;4.50;88.05;99139.88;4881541;29;20052;-50
2021/12/14 13:00:42;;;;;;;14.93;6.10;;;;;;;4.59;88.08;99135.34;4879443;29;20036;-50
2021/12/14 13:03:19;;;;;;;15.82;5.25;;;;;;;4.75;87.28;99137.44;4880475;29;20025;-49
2021/12/14 13:05:50;;;;;;;12.52;5.15;;;;;;;4.74;86.98;99132.25;4880444;29;20033;-50
2021/12/14 13:08:23;;;;;;;13.75;5.47;;;;;;;4.71;87.50;99124.56;4889624;29;20085;-49
2021/12/14 13:10:53;;;;;;;15.15;5.47;;;;;;;4.65;87.47;99136.00;4881502;29;20057;-49
2021/12/14 13:13:28;;;;;;;13.75;5.30;;;;;;;4.66;87.64;99134.25;4880703;29;20048;-50
2021/12/14 13:15:54;;;;;;;14.55;5.45;;;;;;;4.89;87.07;99126.63;4881064;29;20033;-48
2021/12/14 13:18:23;;;;;;;12.77;4.90;;;;;;;4.91;87.04;99126.56;4880807;29;20028;-49
2021/12/14 13:20:52;;;;;;;15.15;5.93;;;;;;;4.84;87.19;99133.69;4880469;29;20096;-52
2021/12/14 13:23:21;;;;;;;15.85;5.90;;;;;;;4.75;87.62;99134.00;4881236;29;20025;-49
2021/12/14 13:25:47;;;;;;;15.23;5.57;;;;;;;4.72;86.91;99131.47;4881304;29;20044;-48
2021/12/14 13:28:13;;;;;;;12.40;5.43;;;;;;;4.84;86.43;99141.47;4880697;29;20025;-49
2021/12/14 13:30:39;;;;;;;13.77;6.25;;;;;;;4.65;87.23;99136.00;4882159;29;20043;-49
2021/12/14 13:33:34;;;;;;;14.13;5.38;;;;;;;4.74;86.83;99129.66;4879640;29;20029;-49
2021/12/14 13:35:59;;;;;;;15.27;6.90;;;;;;;4.60;87.88;99126.63;4878653;29;20037;-49
2021/12/14 13:38:24;;;;;;;15.68;6.45;;;;;;;4.58;87.93;99141.44;4879726;29;20396;-48
2021/12/14 13:40:50;;;;;;;14.95;6.35;;;;;;;4.60;88.28;99147.41;4879788;29;20103;-49
2021/12/14 13:43:19;;;;;;;15.77;6.85;;;;;;;4.41;88.77;99154.91;4879697;29;20077;-50
2021/12/14 13:45:50;;;;;;;19.67;7.25;;;;;;;4.30;88.81;99150.00;4882247;29;20049;-48
2021/12/14 13:48:19;;;;;;;18.50;7.25;;;;;;;4.40;88.66;99154.03;4881094;29;20029;-54
2021/12/14 13:50:47;;;;;;;15.68;6.15;;;;;;;4.41;88.85;99155.75;4879352;29;20591;-50
2021/12/14 13:53:13;;;;;;;19.95;6.90;;;;;;;4.44;88.74;99157.41;4880014;29;20033;-48
2021/12/14 13:55:40;;;;;;;17.75;7.10;;;;;;;4.19;89.84;99163.28;4879621;29;20032;-50
2021/12/14 13:58:19;;;;;;;16.48;6.63;;;;;;;4.36;89.53;99165.41;4879669;29;20024;-51
2021/12/14 14:00:51;;;;;;;15.73;5.97;;;;;;;4.55;88.74;99168.34;4862636;29;20028;-53
2021/12/14 14:03:17;;;;;;;20.50;7.38;;;;;;;4.33;89.63;99165.50;4880571;29;20021;-49
2021/12/14 14:05:43;;;;;;;16.60;6.65;;;;;;;4.39;89.53;99175.72;4881336;29;20080;-52
2021/12/14 14:08:12;;;;;;;18.63;7.45;;;;;;;4.45;88.91;99175.56;4880677;29;20036;-53
2021/12/14 14:10:37;;;;;;;19.25;6.93;;;;;;;4.36;89.44;99180.16;4879530;29;20494;-52
2021/12/14 14:13:11;;;;;;;16.33;7.28;;;;;;;4.47;89.29;99183.28;4880475;29;20044;-50
2021/12/14 14:15:37;;;;;;;17.45;7.00;;;;;;;4.52;88.86;99190.06;4878299;29;20156;-54
2021/12/14 14:18:04;;;;;;;20.67;7.32;;;;;;;4.47;89.48;99196.28;4879869;29;20515;-49
2021/12/14 14:20:36;;;;;;;18.17;8.30;;;;;;;4.38;89.45;99191.34;4877979;29;20029;-48
2021/12/14 14:23:15;;;;;;;19.60;7.35;;;;;;;4.34;89.35;99188.00;4878378;29;20029;-51
2021/12/14 14:25:43;;;;;;;18.35;7.32;;;;;;;4.37;89.52;99197.44;4881005;29;20498;-51
2021/12/14 14:28:08;;;;;;;16.40;7.40;;;;;;;4.26;89.71;99195.13;4880816;29;20044;-48
2021/12/14 14:30:36;;;;;;;17.75;7.85;;;;;;;4.26;89.60;99208.97;4878901;29;20033;-49
2021/12/14 14:33:22;;;;;;;18.10;8.07;;;;;;;4.19;89.41;99201.38;4881123;29;20028;-49
2021/12/14 14:35:55;;;;;;;18.75;7.22;;;;;;;4.25;89.39;99209.84;4878660;29;20029;-48
2021/12/14 14:38:31;;;;;;;18.50;7.82;;;;;;;4.18;89.73;99202.28;4878867;29;20095;-49
2021/12/14 14:40:59;;;;;;;19.45;7.82;;;;;;;4.13;89.62;99201.53;4878883;29;20043;-50
2021/12/14 14:43:55;;;;;;;21.50;8.57;;;;;;;4.18;90.09;99216.13;4878049;29;20115;-48
2021/12/14 14:46:38;;;;;;;19.25;7.72;;;;;;;4.05;90.76;99212.97;4859984;29;20442;-52
2021/12/14 14:49:12;;;;;;;23.25;8.55;;;;;;;4.10;90.28;99214.63;4860586;29;20076;-50
2021/12/14 14:51:52;;;;;;;19.73;8.35;;;;;;;4.23;89.71;99219.47;4860861;29;20033;-48
2021/12/14 14:54:32;;;;;;;17.45;7.63;;;;;;;4.11;89.89;99222.38;4879491;29;20036;-49
2021/12/14 14:57:10;;;;;;;19.38;8.52;;;;;;;4.24;89.18;99217.72;4881318;29;20033;-49
2021/12/14 14:59:39;;;;;;;20.08;7.78;;;;;;;4.20;89.33;99224.72;4881373;29;20032;-49
2021/12/14 15:02:05;;;;;;;17.88;7.47;;;;;;;4.06;89.95;99224.25;4879348;29;20032;-50
2021/12/14 15:05:01;;;;;;;16.90;7.78;;;;;;;4.19;89.20;99219.56;4878250;29;20061;-55
2021/12/14 15:07:50;;;;;;;18.30;8.73;;;;;;;4.03;89.61;99224.31;4880521;29;20057;-50
2021/12/14 15:10:16;;;;;;;20.02;9.15;;;;;;;4.19;89.74;99229.94;4877488;29;20037;-52
2021/12/14 15:12:41;;;;;;;20.08;9.45;;;;;;;4.12;89.96;99233.59;4878413;29;20084;-51
2021/12/14 15:15:14;;;;;;;31.10;14.25;;;;;;;4.16;89.71;99235.22;4879567;29;20048;-52
2021/12/14 15:17:44;;;;;;;23.33;10.77;;;;;;;4.08;89.81;99239.75;4879973;29;20180;-52
2021/12/14 15:20:09;;;;;;;29.10;12.38;;;;;;;4.18;89.49;99239.47;4880699;29;20029;-52
2021/12/14 15:22:36;;;;;;;25.83;10.30;;;;;;;3.98;89.71;99232.19;4862267;29;20165;-49
2021/12/14 15:25:08;;;;;;;29.48;13.30;;;;;;;3.98;89.83;99234.81;4880999;29;20051;-54
2021/12/14 15:27:37;;;;;;;;;;;;;;;3.99;89.73;99236.53;4882903;29;20044;-49
2021/12/14 15:30:05;;;;;;;30.48;13.45;;;;;;;4.16;89.06;99236.06;4882506;29;19912;-52
2021/12/14 15:32:36;;;;;;;56.65;27.30;;;;;;;3.99;89.46;99238.25;4882547;29;20029;-49
2021/12/14 15:35:12;;;;;;;40.47;21.67;;;;;;;4.00;89.46;99240.81;4881656;29;20517;-51
2021/12/14 15:37:59;;;;;;;39.83;20.88;;;;;;;3.93;89.63;99241.88;4882079;29;20168;-49
2021/12/14 15:40:25;;;;;;;26.30;13.30;;;;;;;3.95;90.14;99240.06;4882154;29;20401;-52
2021/12/14 15:42:56;;;;;;;23.23;11.65;;;;;;;3.97;90.12;99243.50;4885271;29;20036;-49
2021/12/14 15:45:43;;;;;;;22.85;10.77;;;;;;;3.84;90.69;99239.50;4884966;29;20041;-50
2021/12/14 15:48:15;;;;;;;24.00;12.50;;;;;;;3.85;90.79;99241.19;4884438;29;20028;-51
2021/12/14 15:51:00;;;;;;;26.42;14.02;;;;;;;3.98;90.22;99241.75;4881825;29;20509;-48
2021/12/14 15:53:42;;;;;;;19.48;8.82;;;;;;;3.83;90.95;99242.13;4882843;29;20021;-51
2021/12/14 15:56:10;;;;;;;18.52;8.20;;;;;;;3.97;90.51;99240.03;4882317;29;20029;-52
2021/12/14 15:58:37;;;;;;;25.63;12.63;;;;;;;4.01;89.43;99224.34;4883870;29;20025;-48
2021/12/14 16:01:10;;;;;;;18.98;8.80;;;;;;;3.94;89.73;99243.56;4883229;29;20021;-53
2021/12/14 16:03:35;;;;;;;20.42;8.68;;;;;;;3.82;90.35;99241.28;4882528;29;20112;-49
2021/12/14 16:06:01;;;;;;;20.73;8.68;;;;;;;3.95;89.85;99245.25;4879914;29;20032;-48
2021/12/14 16:08:29;;;;;;;18.02;8.43;;;;;;;3.87;89.82;99241.16;4882930;29;20029;-50
2021/12/14 16:11:08;;;;;;;21.25;9.27;;;;;;;3.97;89.46;99246.09;4883586;29;20025;-50
2021/12/14 16:16:18;;;;;;;20.75;10.63;;;;;;;4.22;88.34;99261.88;4864745;29;20033;-52
2021/12/14 16:18:43;;;;;;;18.35;8.10;;;;;;;4.24;88.86;99264.44;4880090;29;20026;-49
2021/12/14 16:21:09;;;;;;;20.92;9.10;;;;;;;4.29;88.30;99263.41;4879566;29;20030;-48
2021/12/14 16:23:38;;;;;;;17.83;7.75;;;;;;;4.33;88.46;99274.56;4879672;29;20021;-49
2021/12/14 16:26:15;;;;;;;17.83;7.85;;;;;;;4.33;88.29;99265.94;4879793;29;20485;-49
2021/12/14 16:28:47;;;;;;;17.73;8.50;;;;;;;4.07;88.45;99264.03;4884700;29;20025;-51
2021/12/14 16:31:21;;;;;;;17.75;7.93;;;;;;;4.13;89.30;99271.66;4884514;29;20104;-49
2021/12/14 16:33:49;;;;;;;18.58;8.00;;;;;;;4.08;89.17;99268.31;4882068;29;20046;-50
2021/12/14 16:36:19;;;;;;;16.65;7.78;;;;;;;4.34;88.68;99271.13;4881110;29;20109;-51
2021/12/14 16:38:53;;;;;;;16.40;7.80;;;;;;;4.07;89.15;99266.63;4882274;29;20021;-50
2021/12/14 16:41:27;;;;;;;16.08;7.90;;;;;;;4.02;89.79;99275.38;4881640;29;20438;-50
2021/12/14 16:43:56;;;;;;;16.55;7.90;;;;;;;4.05;89.15;99270.09;4880405;29;20025;-51
2021/12/14 16:46:29;;;;;;;19.95;8.10;;;;;;;3.92;90.10;99271.31;4880586;29;20037;-50
2021/12/14 16:48:56;;;;;;;18.45;8.30;;;;;;;3.93;89.94;99275.63;4883873;29;20115;-54
2021/12/14 16:51:21;;;;;;;18.33;8.02;;;;;;;4.08;88.98;99274.38;4885773;29;20029;-51
2021/12/14 16:53:59;;;;;;;17.17;7.82;;;;;;;4.22;88.65;99280.06;4884505;29;20044;-47
2021/12/14 16:56:24;;;;;;;16.90;7.65;;;;;;;4.36;88.22;99278.84;4883341;29;20036;-51
2021/12/14 16:59:17;;;;;;;17.35;8.35;;;;;;;4.24;88.38;99280.03;4883641;29;20025;-48
2021/12/14 17:01:48;;;;;;;16.13;8.13;;;;;;;4.19;89.08;99287.91;4880725;29;20048;-47
2021/12/14 17:04:13;;;;;;;19.45;8.15;;;;;;;4.22;88.47;99292.19;4884244;29;20085;-48
2021/12/14 17:06:39;;;;;;;16.17;7.93;;;;;;;4.17;88.83;99305.31;4882617;29;20041;-50
2021/12/14 17:09:09;;;;;;;17.17;8.25;;;;;;;4.25;88.60;99294.72;4883582;29;20421;-49
2021/12/14 17:11:36;;;;;;;16.52;7.60;;;;;;;4.19;88.22;99293.13;4883338;29;20442;-48
2021/12/14 17:14:03;;;;;;;16.80;7.68;;;;;;;4.07;89.20;99287.41;4883571;29;20052;-48
2021/12/14 17:16:31;;;;;;;18.15;7.65;;;;;;;4.24;88.58;99295.63;4882487;29;20025;-50
2021/12/14 17:19:01;;;;;;;15.82;8.02;;;;;;;3.98;89.53;99298.84;4883506;29;20036;-48
2021/12/14 17:21:36;;;;;;;20.50;8.65;;;;;;;4.12;88.57;99296.75;4884047;29;20398;-51
2021/12/14 17:24:07;;;;;;;16.85;8.32;;;;;;;4.18;88.32;99300.97;4883347;29;20028;-48
2021/12/14 17:26:33;;;;;;;18.53;8.93;;;;;;;4.15;88.67;99306.22;4883757;29;20041;-47
2021/12/14 17:29:00;;;;;;;17.02;8.27;;;;;;;4.36;88.05;99304.81;4882397;29;20047;-48
2021/12/14 17:31:32;;;;;;;16.52;7.47;;;;;;;4.14;88.46;99295.00;4883270;29;20063;-47
2021/12/14 17:33:58;;;;;;;18.38;8.48;;;;;;;4.34;88.00;99312.66;4883055;29;20033;-48
2021/12/14 17:36:26;;;;;;;18.00;9.25;;;;;;;4.43;87.90;99315.00;4883148;29;20061;-46
2021/12/14 17:38:52;;;;;;;18.85;8.45;;;;;;;4.31;88.15;99306.69;4883171;29;20025;-47
2021/12/14 17:41:22;;;;;;;18.10;8.18;;;;;;;4.32;87.83;99309.25;4883189;29;20025;-49
2021/12/14 17:44:08;;;;;;;17.05;7.10;;;;;;;4.36;87.89;99310.88;4883110;29;20017;-47
2021/12/14 17:46:34;;;;;;;16.25;7.47;;;;;;;4.34;87.85;99310.06;4881701;29;20049;-50
2021/12/14 17:49:11;;;;;;;15.02;7.55;;;;;;;4.04;88.50;99289.16;4883003;29;20031;-48
2021/12/14 17:51:36;;;;;;;18.40;8.38;;;;;;;4.33;88.10;99308.34;4882931;29;20025;-52
2021/12/14 17:54:02;;;;;;;17.67;7.10;;;;;;;4.31;88.30;99311.91;4882337;29;20073;-48
2021/12/14 17:56:27;;;;;;;15.50;7.63;;;;;;;4.26;88.31;99315.44;4882362;29;20037;-49
2021/12/14 17:58:53;;;;;;;16.70;7.50;;;;;;;4.34;88.10;99312.66;4882983;29;20029;-48
2021/12/14 18:01:23;;;;;;;15.00;7.00;;;;;;;4.48;87.66;99320.97;4882933;29;20036;-50
2021/12/14 18:03:54;;;;;;;14.60;7.22;;;;;;;4.48;87.77;99313.16;4882618;29;20021;-48
2021/12/14 18:06:21;;;;;;;15.38;6.93;;;;;;;4.46;88.04;99309.75;4882837;29;20664;-47
2021/12/14 18:08:52;;;;;;;16.00;7.63;;;;;;;4.49;87.60;99314.84;4883160;29;20025;-51
2021/12/14 18:11:21;;;;;;;15.77;7.55;;;;;;;4.42;88.00;99315.91;4883615;29;20112;-48
2021/12/14 18:14:07;;;;;;;17.08;8.30;;;;;;;4.65;87.17;99311.88;4883185;29;20017;-47
2021/12/14 18:16:47;;;;;;;15.70;6.90;;;;;;;4.59;87.67;99317.22;4882714;29;20528;-51
2021/12/14 18:19:13;;;;;;;16.50;8.48;;;;;;;4.48;87.21;99320.97;4882268;29;20068;-50
2021/12/14 18:21:53;;;;;;;16.85;8.10;;;;;;;4.54;87.68;99325.13;4885004;29;20043;-49
2021/12/14 18:24:25;;;;;;;17.00;8.48;;;;;;;4.53;87.59;99328.63;4881373;29;20398;-48
2021/12/14 18:27:03;;;;;;;15.63;8.18;;;;;;;4.42;88.02;99315.91;4881816;29;20032;-50
2021/12/14 18:29:34;;;;;;;15.55;8.25;;;;;;;4.52;88.04;99327.78;4888955;29;20063;-49
2021/12/14 18:32:03;;;;;;;16.13;8.45;;;;;;;4.59;88.31;99322.41;4888810;29;20033;-48
2021/12/14 18:34:28;;;;;;;18.90;9.20;;;;;;;4.52;87.69;99322.56;4887013;29;20033;-49